sensor_id;sensor_type;location;lat;lon;timestamp;P1;durP1;ratioP1;P2;durP2;ratioP2
45842;SDS011;31563;51.744;8.252;2024-01-06T00:00:49;0.95;;;0.60;;
45842;SDS011;31563;51.744;8.252;2024-01-06T00:03:16;0.80;;;0.60;;
45842;SDS011;31563;51.744;8.252;2024-01-06T00:05:44;0.77;;;0.45;;
45842;SDS011;31563;51.744;8.252;2024-01-06T00:08:12;0.40;;;0.30;;
45842;SDS011;31563;51.744;8.252;2024-01-06T00:10:42;0.90;;;0.50;;
45842;SDS011;31563;51.744;8.252;2024-01-06T00:13:09;0.70;;;0.50;;
45842;SDS011;31563;51.744;8.252;2024-01-06T00:15:37;0.63;;;0.45;;
45842;SDS011;31563;51.744;8.252;2024-01-06T00:18:05;1.20;;;0.60;;
45842;SDS011;31563;51.744;8.252;2024-01-06T00:20:34;0.80;;;0.55;;
45842;SDS011;31563;51.744;8.252;2024-01-06T00:23:02;0.77;;;0.57;;
45842;SDS011;31563;51.744;8.252;2024-01-06T00:25:30;0.90;;;0.50;;
45842;SDS011;31563;51.744;8.252;2024-01-06T00:27:59;0.77;;;0.50;;
45842;SDS011;31563;51.744;8.252;2024-01-06T00:30:27;1.00;;;0.73;;
45842;SDS011;31563;51.744;8.252;2024-01-06T00:32:55;0.70;;;0.50;;
45842;SDS011;31563;51.744;8.252;2024-01-06T00:35:23;0.75;;;0.60;;
45842;SDS011;31563;51.744;8.252;2024-01-06T00:37:51;0.90;;;0.63;;
45842;SDS011;31563;51.744;8.252;2024-01-06T00:40:19;0.95;;;0.52;;
45842;SDS011;31563;51.744;8.252;2024-01-06T00:42:46;1.00;;;0.60;;
45842;SDS011;31563;51.744;8.252;2024-01-06T00:45:16;0.85;;;0.52;;
45842;SDS011;31563;51.744;8.252;2024-01-06T00:47:44;0.65;;;0.43;;
45842;SDS011;31563;51.744;8.252;2024-01-06T00:50:12;0.70;;;0.50;;
45842;SDS011;31563;51.744;8.252;2024-01-06T00:52:41;0.82;;;0.60;;
45842;SDS011;31563;51.744;8.252;2024-01-06T00:55:08;0.60;;;0.40;;
45842;SDS011;31563;51.744;8.252;2024-01-06T00:57:36;0.88;;;0.52;;
45842;SDS011;31563;51.744;8.252;2024-01-06T01:00:05;0.60;;;0.50;;
45842;SDS011;31563;51.744;8.252;2024-01-06T01:02:35;0.90;;;0.60;;
45842;SDS011;31563;51.744;8.252;2024-01-06T01:05:05;0.65;;;0.50;;
45842;SDS011;31563;51.744;8.252;2024-01-06T01:07:34;0.77;;;0.43;;
45842;SDS011;31563;51.744;8.252;2024-01-06T01:10:02;0.68;;;0.50;;
45842;SDS011;31563;51.744;8.252;2024-01-06T01:12:32;0.85;;;0.60;;
45842;SDS011;31563;51.744;8.252;2024-01-06T01:14:59;0.80;;;0.50;;
45842;SDS011;31563;51.744;8.252;2024-01-06T01:17:27;1.08;;;0.75;;
45842;SDS011;31563;51.744;8.252;2024-01-06T01:19:57;0.50;;;0.47;;
45842;SDS011;31563;51.744;8.252;2024-01-06T01:22:25;0.70;;;0.60;;
45842;SDS011;31563;51.744;8.252;2024-01-06T01:24:52;0.85;;;0.68;;
45842;SDS011;31563;51.744;8.252;2024-01-06T01:27:20;0.63;;;0.50;;
45842;SDS011;31563;51.744;8.252;2024-01-06T01:29:49;0.90;;;0.52;;
45842;SDS011;31563;51.744;8.252;2024-01-06T01:32:19;0.98;;;0.52;;
45842;SDS011;31563;51.744;8.252;2024-01-06T01:34:47;1.17;;;0.65;;
45842;SDS011;31563;51.744;8.252;2024-01-06T01:37:16;1.00;;;0.77;;
45842;SDS011;31563;51.744;8.252;2024-01-06T01:39:44;0.80;;;0.50;;
45842;SDS011;31563;51.744;8.252;2024-01-06T01:42:12;0.50;;;0.40;;
45842;SDS011;31563;51.744;8.252;2024-01-06T01:44:40;0.77;;;0.50;;
45842;SDS011;31563;51.744;8.252;2024-01-06T01:47:08;0.73;;;0.50;;
45842;SDS011;31563;51.744;8.252;2024-01-06T01:49:36;0.60;;;0.50;;
45842;SDS011;31563;51.744;8.252;2024-01-06T01:52:05;0.50;;;0.50;;
45842;SDS011;31563;51.744;8.252;2024-01-06T01:54:34;0.80;;;0.43;;
45842;SDS011;31563;51.744;8.252;2024-01-06T01:57:02;0.60;;;0.40;;
45842;SDS011;31563;51.744;8.252;2024-01-06T01:59:31;0.80;;;0.50;;
45842;SDS011;31563;51.744;8.252;2024-01-06T02:01:59;0.85;;;0.65;;
45842;SDS011;31563;51.744;8.252;2024-01-06T02:04:28;0.60;;;0.50;;
45842;SDS011;31563;51.744;8.252;2024-01-06T02:06:56;0.80;;;0.73;;
45842;SDS011;31563;51.744;8.252;2024-01-06T02:09:24;1.00;;;0.50;;
45842;SDS011;31563;51.744;8.252;2024-01-06T02:11:57;0.82;;;0.50;;
45842;SDS011;31563;51.744;8.252;2024-01-06T02:14:25;0.93;;;0.65;;
45842;SDS011;31563;51.744;8.252;2024-01-06T02:16:53;0.70;;;0.50;;
45842;SDS011;31563;51.744;8.252;2024-01-06T02:19:21;0.60;;;0.60;;
45842;SDS011;31563;51.744;8.252;2024-01-06T02:21:51;0.70;;;0.52;;
45842;SDS011;31563;51.744;8.252;2024-01-06T02:24:20;0.70;;;0.40;;
45842;SDS011;31563;51.744;8.252;2024-01-06T02:26:48;0.60;;;0.50;;
45842;SDS011;31563;51.744;8.252;2024-01-06T02:29:16;0.70;;;0.50;;
45842;SDS011;31563;51.744;8.252;2024-01-06T02:31:44;0.82;;;0.60;;
45842;SDS011;31563;51.744;8.252;2024-01-06T02:34:12;0.80;;;0.40;;
45842;SDS011;31563;51.744;8.252;2024-01-06T02:36:41;1.27;;;0.75;;
45842;SDS011;31563;51.744;8.252;2024-01-06T02:39:10;1.02;;;0.55;;
45842;SDS011;31563;51.744;8.252;2024-01-06T02:41:38;0.82;;;0.52;;
45842;SDS011;31563;51.744;8.252;2024-01-06T02:44:06;0.60;;;0.55;;
45842;SDS011;31563;51.744;8.252;2024-01-06T02:46:38;0.50;;;0.47;;
45842;SDS011;31563;51.744;8.252;2024-01-06T02:49:07;0.70;;;0.50;;
45842;SDS011;31563;51.744;8.252;2024-01-06T02:51:35;0.60;;;0.43;;
45842;SDS011;31563;51.744;8.252;2024-01-06T02:54:03;1.13;;;0.63;;
45842;SDS011;31563;51.744;8.252;2024-01-06T02:56:33;0.70;;;0.50;;
45842;SDS011;31563;51.744;8.252;2024-01-06T02:59:01;0.80;;;0.60;;
45842;SDS011;31563;51.744;8.252;2024-01-06T03:01:28;0.70;;;0.60;;
45842;SDS011;31563;51.744;8.252;2024-01-06T03:03:57;0.50;;;0.40;;
45842;SDS011;31563;51.744;8.252;2024-01-06T03:06:25;0.82;;;0.50;;
45842;SDS011;31563;51.744;8.252;2024-01-06T03:08:53;0.70;;;0.50;;
45842;SDS011;31563;51.744;8.252;2024-01-06T03:11:21;0.90;;;0.70;;
45842;SDS011;31563;51.744;8.252;2024-01-06T03:13:50;0.68;;;0.50;;
45842;SDS011;31563;51.744;8.252;2024-01-06T03:16:18;0.50;;;0.50;;
45842;SDS011;31563;51.744;8.252;2024-01-06T03:18:46;0.93;;;0.65;;
45842;SDS011;31563;51.744;8.252;2024-01-06T03:21:18;0.93;;;0.52;;
45842;SDS011;31563;51.744;8.252;2024-01-06T03:23:46;0.55;;;0.40;;
45842;SDS011;31563;51.744;8.252;2024-01-06T03:26:16;0.50;;;0.43;;
45842;SDS011;31563;51.744;8.252;2024-01-06T03:28:44;0.50;;;0.47;;
45842;SDS011;31563;51.744;8.252;2024-01-06T03:31:13;1.30;;;0.70;;
45842;SDS011;31563;51.744;8.252;2024-01-06T03:33:42;0.75;;;0.55;;
45842;SDS011;31563;51.744;8.252;2024-01-06T03:36:12;0.63;;;0.50;;
45842;SDS011;31563;51.744;8.252;2024-01-06T03:38:42;0.70;;;0.45;;
45842;SDS011;31563;51.744;8.252;2024-01-06T03:41:09;0.90;;;0.60;;
45842;SDS011;31563;51.744;8.252;2024-01-06T03:43:37;0.75;;;0.60;;
45842;SDS011;31563;51.744;8.252;2024-01-06T03:46:05;0.57;;;0.40;;
45842;SDS011;31563;51.744;8.252;2024-01-06T03:48:34;0.70;;;0.50;;
45842;SDS011;31563;51.744;8.252;2024-01-06T03:51:03;0.85;;;0.60;;
45842;SDS011;31563;51.744;8.252;2024-01-06T03:53:31;0.50;;;0.47;;
45842;SDS011;31563;51.744;8.252;2024-01-06T03:55:59;0.70;;;0.50;;
45842;SDS011;31563;51.744;8.252;2024-01-06T03:58:27;0.90;;;0.60;;
45842;SDS011;31563;51.744;8.252;2024-01-06T04:00:55;0.80;;;0.63;;
45842;SDS011;31563;51.744;8.252;2024-01-06T04:03:23;0.80;;;0.60;;
45842;SDS011;31563;51.744;8.252;2024-01-06T04:05:52;0.77;;;0.60;;
45842;SDS011;31563;51.744;8.252;2024-01-06T04:08:20;1.17;;;0.60;;
45842;SDS011;31563;51.744;8.252;2024-01-06T04:10:48;0.70;;;0.50;;
45842;SDS011;31563;51.744;8.252;2024-01-06T04:13:16;0.63;;;0.50;;
45842;SDS011;31563;51.744;8.252;2024-01-06T04:15:44;1.63;;;0.50;;
45842;SDS011;31563;51.744;8.252;2024-01-06T04:18:12;0.80;;;0.70;;
45842;SDS011;31563;51.744;8.252;2024-01-06T04:20:40;0.70;;;0.50;;
45842;SDS011;31563;51.744;8.252;2024-01-06T04:23:09;0.75;;;0.52;;
45842;SDS011;31563;51.744;8.252;2024-01-06T04:25:37;0.63;;;0.47;;
45842;SDS011;31563;51.744;8.252;2024-01-06T04:28:05;0.75;;;0.50;;
45842;SDS011;31563;51.744;8.252;2024-01-06T04:30:33;0.98;;;0.70;;
45842;SDS011;31563;51.744;8.252;2024-01-06T04:33:01;0.70;;;0.40;;
45842;SDS011;31563;51.744;8.252;2024-01-06T04:35:29;0.90;;;0.60;;
45842;SDS011;31563;51.744;8.252;2024-01-06T04:37:57;0.68;;;0.60;;
45842;SDS011;31563;51.744;8.252;2024-01-06T04:40:26;0.65;;;0.45;;
45842;SDS011;31563;51.744;8.252;2024-01-06T04:42:54;0.83;;;0.70;;
45842;SDS011;31563;51.744;8.252;2024-01-06T04:45:22;0.60;;;0.50;;
45842;SDS011;31563;51.744;8.252;2024-01-06T04:47:51;0.80;;;0.50;;
45842;SDS011;31563;51.744;8.252;2024-01-06T04:50:19;0.80;;;0.60;;
45842;SDS011;31563;51.744;8.252;2024-01-06T04:52:46;0.47;;;0.45;;
45842;SDS011;31563;51.744;8.252;2024-01-06T04:55:15;0.65;;;0.50;;
45842;SDS011;31563;51.744;8.252;2024-01-06T04:57:44;0.45;;;0.40;;
45842;SDS011;31563;51.744;8.252;2024-01-06T05:00:12;0.93;;;0.68;;
45842;SDS011;31563;51.744;8.252;2024-01-06T05:02:41;0.40;;;0.40;;
45842;SDS011;31563;51.744;8.252;2024-01-06T05:05:09;0.50;;;0.50;;
45842;SDS011;31563;51.744;8.252;2024-01-06T05:07:37;0.50;;;0.40;;
45842;SDS011;31563;51.744;8.252;2024-01-06T05:10:05;0.85;;;0.65;;
45842;SDS011;31563;51.744;8.252;2024-01-06T05:12:33;3.63;;;2.60;;
45842;SDS011;31563;51.744;8.252;2024-01-06T05:15:03;4.93;;;4.15;;
45842;SDS011;31563;51.744;8.252;2024-01-06T05:19:59;4.28;;;3.50;;
45842;SDS011;31563;51.744;8.252;2024-01-06T05:22:27;2.97;;;2.67;;
45842;SDS011;31563;51.744;8.252;2024-01-06T05:24:55;2.90;;;2.60;;
45842;SDS011;31563;51.744;8.252;2024-01-06T05:27:23;3.17;;;2.55;;
45842;SDS011;31563;51.744;8.252;2024-01-06T05:29:51;3.58;;;2.22;;
45842;SDS011;31563;51.744;8.252;2024-01-06T05:32:20;2.78;;;2.40;;
45842;SDS011;31563;51.744;8.252;2024-01-06T05:34:48;2.20;;;2.00;;
45842;SDS011;31563;51.744;8.252;2024-01-06T05:37:16;2.85;;;2.22;;
45842;SDS011;31563;51.744;8.252;2024-01-06T05:39:44;2.30;;;2.08;;
45842;SDS011;31563;51.744;8.252;2024-01-06T05:42:12;3.13;;;2.05;;
45842;SDS011;31563;51.744;8.252;2024-01-06T05:44:41;2.75;;;2.08;;
45842;SDS011;31563;51.744;8.252;2024-01-06T05:47:09;2.10;;;1.90;;
45842;SDS011;31563;51.744;8.252;2024-01-06T05:49:40;2.00;;;1.80;;
45842;SDS011;31563;51.744;8.252;2024-01-06T05:52:09;2.13;;;1.80;;
45842;SDS011;31563;51.744;8.252;2024-01-06T05:54:39;2.00;;;1.70;;
45842;SDS011;31563;51.744;8.252;2024-01-06T05:57:08;2.00;;;1.80;;
45842;SDS011;31563;51.744;8.252;2024-01-06T05:59:36;1.35;;;1.20;;
45842;SDS011;31563;51.744;8.252;2024-01-06T06:02:04;1.80;;;1.60;;
45842;SDS011;31563;51.744;8.252;2024-01-06T06:04:32;1.75;;;1.55;;
45842;SDS011;31563;51.744;8.252;2024-01-06T06:07:02;1.48;;;1.38;;
45842;SDS011;31563;51.744;8.252;2024-01-06T06:09:30;1.88;;;1.73;;
45842;SDS011;31563;51.744;8.252;2024-01-06T06:12:00;1.90;;;1.45;;
45842;SDS011;31563;51.744;8.252;2024-01-06T06:14:28;1.67;;;1.50;;
45842;SDS011;31563;51.744;8.252;2024-01-06T06:16:56;1.75;;;1.30;;
45842;SDS011;31563;51.744;8.252;2024-01-06T06:19:24;1.98;;;1.65;;
45842;SDS011;31563;51.744;8.252;2024-01-06T06:21:52;1.63;;;1.33;;
45842;SDS011;31563;51.744;8.252;2024-01-06T06:24:21;2.00;;;1.67;;
45842;SDS011;31563;51.744;8.252;2024-01-06T06:26:49;1.80;;;1.60;;
45842;SDS011;31563;51.744;8.252;2024-01-06T06:29:17;1.73;;;1.52;;
45842;SDS011;31563;51.744;8.252;2024-01-06T06:31:46;1.70;;;1.40;;
45842;SDS011;31563;51.744;8.252;2024-01-06T06:34:15;1.83;;;1.33;;
45842;SDS011;31563;51.744;8.252;2024-01-06T06:36:43;1.90;;;1.30;;
45842;SDS011;31563;51.744;8.252;2024-01-06T06:39:12;1.30;;;1.20;;
45842;SDS011;31563;51.744;8.252;2024-01-06T06:41:42;1.90;;;1.52;;
45842;SDS011;31563;51.744;8.252;2024-01-06T06:44:10;1.80;;;1.45;;
45842;SDS011;31563;51.744;8.252;2024-01-06T06:46:38;1.50;;;1.20;;
45842;SDS011;31563;51.744;8.252;2024-01-06T06:49:05;1.10;;;0.93;;
45842;SDS011;31563;51.744;8.252;2024-01-06T06:51:34;1.20;;;0.90;;
45842;SDS011;31563;51.744;8.252;2024-01-06T06:54:02;1.08;;;0.98;;
45842;SDS011;31563;51.744;8.252;2024-01-06T06:56:30;1.30;;;0.73;;
45842;SDS011;31563;51.744;8.252;2024-01-06T06:58:59;1.52;;;1.13;;
45842;SDS011;31563;51.744;8.252;2024-01-06T07:01:28;1.02;;;0.93;;
45842;SDS011;31563;51.744;8.252;2024-01-06T07:03:59;1.10;;;0.93;;
45842;SDS011;31563;51.744;8.252;2024-01-06T07:06:28;0.95;;;0.80;;
45842;SDS011;31563;51.744;8.252;2024-01-06T07:08:56;1.65;;;1.15;;
45842;SDS011;31563;51.744;8.252;2024-01-06T07:11:25;0.93;;;0.80;;
45842;SDS011;31563;51.744;8.252;2024-01-06T07:13:53;1.23;;;0.90;;
45842;SDS011;31563;51.744;8.252;2024-01-06T07:16:22;1.35;;;0.90;;
45842;SDS011;31563;51.744;8.252;2024-01-06T07:18:50;1.30;;;0.80;;
45842;SDS011;31563;51.744;8.252;2024-01-06T07:21:18;1.55;;;0.90;;
45842;SDS011;31563;51.744;8.252;2024-01-06T07:23:46;1.25;;;1.15;;
45842;SDS011;31563;51.744;8.252;2024-01-06T07:26:14;0.73;;;0.70;;
45842;SDS011;31563;51.744;8.252;2024-01-06T07:28:42;1.02;;;0.93;;
45842;SDS011;31563;51.744;8.252;2024-01-06T07:31:10;0.95;;;0.70;;
45842;SDS011;31563;51.744;8.252;2024-01-06T07:33:39;2.28;;;1.77;;
45842;SDS011;31563;51.744;8.252;2024-01-06T07:36:07;2.17;;;1.95;;
45842;SDS011;31563;51.744;8.252;2024-01-06T07:38:35;1.48;;;1.38;;
45842;SDS011;31563;51.744;8.252;2024-01-06T07:41:03;1.25;;;0.90;;
45842;SDS011;31563;51.744;8.252;2024-01-06T07:43:31;1.00;;;0.80;;
45842;SDS011;31563;51.744;8.252;2024-01-06T07:45:59;5.40;;;1.98;;
45842;SDS011;31563;51.744;8.252;2024-01-06T07:48:29;4.40;;;3.95;;
45842;SDS011;31563;51.744;8.252;2024-01-06T07:50:58;5.68;;;4.60;;
45842;SDS011;31563;51.744;8.252;2024-01-06T07:53:26;4.90;;;4.40;;
45842;SDS011;31563;51.744;8.252;2024-01-06T07:55:54;4.28;;;3.80;;
45842;SDS011;31563;51.744;8.252;2024-01-06T07:58:22;3.22;;;2.92;;
45842;SDS011;31563;51.744;8.252;2024-01-06T08:00:50;3.55;;;3.10;;
45842;SDS011;31563;51.744;8.252;2024-01-06T08:03:17;3.28;;;2.70;;
45842;SDS011;31563;51.744;8.252;2024-01-06T08:05:45;5.00;;;4.43;;
45842;SDS011;31563;51.744;8.252;2024-01-06T08:08:15;5.18;;;4.55;;
45842;SDS011;31563;51.744;8.252;2024-01-06T08:10:44;5.03;;;4.57;;
45842;SDS011;31563;51.744;8.252;2024-01-06T08:13:13;5.93;;;5.43;;
45842;SDS011;31563;51.744;8.252;2024-01-06T08:15:40;5.22;;;4.72;;
45842;SDS011;31563;51.744;8.252;2024-01-06T08:18:08;6.22;;;5.68;;
45842;SDS011;31563;51.744;8.252;2024-01-06T08:20:36;4.97;;;4.47;;
45842;SDS011;31563;51.744;8.252;2024-01-06T08:23:04;4.97;;;4.25;;
45842;SDS011;31563;51.744;8.252;2024-01-06T08:25:33;4.70;;;4.30;;
45842;SDS011;31563;51.744;8.252;2024-01-06T08:28:01;6.63;;;5.93;;
45842;SDS011;31563;51.744;8.252;2024-01-06T08:30:30;4.63;;;4.22;;
45842;SDS011;31563;51.744;8.252;2024-01-06T08:32:58;4.20;;;3.80;;
45842;SDS011;31563;51.744;8.252;2024-01-06T08:35:26;3.53;;;3.22;;
45842;SDS011;31563;51.744;8.252;2024-01-06T08:37:54;3.67;;;2.65;;
45842;SDS011;31563;51.744;8.252;2024-01-06T08:40:22;3.88;;;2.67;;
45842;SDS011;31563;51.744;8.252;2024-01-06T08:42:51;4.55;;;3.83;;
45842;SDS011;31563;51.744;8.252;2024-01-06T08:45:19;4.28;;;3.78;;
45842;SDS011;31563;51.744;8.252;2024-01-06T08:47:48;3.58;;;2.80;;
45842;SDS011;31563;51.744;8.252;2024-01-06T08:50:16;2.55;;;2.35;;
45842;SDS011;31563;51.744;8.252;2024-01-06T08:52:44;2.80;;;2.25;;
45842;SDS011;31563;51.744;8.252;2024-01-06T08:55:12;2.20;;;1.70;;
45842;SDS011;31563;51.744;8.252;2024-01-06T08:57:41;2.15;;;1.77;;
45842;SDS011;31563;51.744;8.252;2024-01-06T09:00:10;1.83;;;1.45;;
45842;SDS011;31563;51.744;8.252;2024-01-06T09:02:39;2.30;;;1.38;;
45842;SDS011;31563;51.744;8.252;2024-01-06T09:05:07;1.58;;;1.33;;
45842;SDS011;31563;51.744;8.252;2024-01-06T09:07:35;1.73;;;1.25;;
45842;SDS011;31563;51.744;8.252;2024-01-06T09:10:03;3.03;;;1.48;;
45842;SDS011;31563;51.744;8.252;2024-01-06T09:12:31;2.38;;;1.50;;
45842;SDS011;31563;51.744;8.252;2024-01-06T09:14:59;1.42;;;1.20;;
45842;SDS011;31563;51.744;8.252;2024-01-06T09:17:28;2.67;;;1.45;;
45842;SDS011;31563;51.744;8.252;2024-01-06T09:19:57;5.93;;;1.50;;
45842;SDS011;31563;51.744;8.252;2024-01-06T09:22:25;4.13;;;1.67;;
45842;SDS011;31563;51.744;8.252;2024-01-06T09:24:53;11.25;;;4.60;;
45842;SDS011;31563;51.744;8.252;2024-01-06T09:27:21;7.78;;;5.25;;
45842;SDS011;31563;51.744;8.252;2024-01-06T09:29:49;8.23;;;4.88;;
45842;SDS011;31563;51.744;8.252;2024-01-06T09:32:17;7.65;;;4.80;;
45842;SDS011;31563;51.744;8.252;2024-01-06T09:34:46;5.80;;;3.92;;
45842;SDS011;31563;51.744;8.252;2024-01-06T09:37:14;5.93;;;3.78;;
45842;SDS011;31563;51.744;8.252;2024-01-06T09:39:42;5.65;;;3.53;;
45842;SDS011;31563;51.744;8.252;2024-01-06T09:42:10;4.72;;;3.47;;
45842;SDS011;31563;51.744;8.252;2024-01-06T09:44:38;4.43;;;2.70;;
45842;SDS011;31563;51.744;8.252;2024-01-06T09:47:06;4.75;;;2.53;;
45842;SDS011;31563;51.744;8.252;2024-01-06T09:49:39;6.93;;;2.60;;
45842;SDS011;31563;51.744;8.252;2024-01-06T09:52:12;3.83;;;2.00;;
45842;SDS011;31563;51.744;8.252;2024-01-06T09:54:43;4.32;;;2.03;;
45842;SDS011;31563;51.744;8.252;2024-01-06T09:57:18;2.33;;;1.70;;
45842;SDS011;31563;51.744;8.252;2024-01-06T09:59:47;2.92;;;1.83;;
45842;SDS011;31563;51.744;8.252;2024-01-06T10:02:15;3.20;;;2.00;;
45842;SDS011;31563;51.744;8.252;2024-01-06T10:04:44;4.43;;;2.35;;
45842;SDS011;31563;51.744;8.252;2024-01-06T10:07:13;2.97;;;1.92;;
45842;SDS011;31563;51.744;8.252;2024-01-06T10:09:41;4.33;;;2.20;;
45842;SDS011;31563;51.744;8.252;2024-01-06T10:12:09;2.63;;;1.73;;
45842;SDS011;31563;51.744;8.252;2024-01-06T10:14:37;4.93;;;1.70;;
45842;SDS011;31563;51.744;8.252;2024-01-06T10:17:06;3.42;;;1.58;;
45842;SDS011;31563;51.744;8.252;2024-01-06T10:19:34;3.30;;;1.65;;
45842;SDS011;31563;51.744;8.252;2024-01-06T10:22:03;2.42;;;1.50;;
45842;SDS011;31563;51.744;8.252;2024-01-06T10:24:32;2.47;;;1.35;;
45842;SDS011;31563;51.744;8.252;2024-01-06T10:27:04;3.17;;;1.50;;
45842;SDS011;31563;51.744;8.252;2024-01-06T10:29:32;2.47;;;1.52;;
45842;SDS011;31563;51.744;8.252;2024-01-06T10:32:00;3.05;;;1.20;;
45842;SDS011;31563;51.744;8.252;2024-01-06T10:34:28;2.42;;;1.73;;
45842;SDS011;31563;51.744;8.252;2024-01-06T10:36:58;3.17;;;1.58;;
45842;SDS011;31563;51.744;8.252;2024-01-06T10:39:26;3.10;;;1.75;;
45842;SDS011;31563;51.744;8.252;2024-01-06T10:41:57;1.90;;;1.30;;
45842;SDS011;31563;51.744;8.252;2024-01-06T10:44:25;2.60;;;1.70;;
45842;SDS011;31563;51.744;8.252;2024-01-06T10:49:24;2.42;;;1.60;;
45842;SDS011;31563;51.744;8.252;2024-01-06T10:51:54;2.35;;;1.27;;
45842;SDS011;31563;51.744;8.252;2024-01-06T10:54:22;2.13;;;1.45;;
45842;SDS011;31563;51.744;8.252;2024-01-06T10:56:51;2.50;;;1.50;;
45842;SDS011;31563;51.744;8.252;2024-01-06T10:59:22;1.55;;;1.42;;
45842;SDS011;31563;51.744;8.252;2024-01-06T11:01:53;2.95;;;2.45;;
45842;SDS011;31563;51.744;8.252;2024-01-06T11:04:22;2.60;;;2.03;;
45842;SDS011;31563;51.744;8.252;2024-01-06T11:06:50;2.90;;;1.98;;
45842;SDS011;31563;51.744;8.252;2024-01-06T11:09:19;2.20;;;1.55;;
45842;SDS011;31563;51.744;8.252;2024-01-06T11:11:51;3.30;;;1.33;;
45842;SDS011;31563;51.744;8.252;2024-01-06T11:14:23;1.90;;;1.27;;
45842;SDS011;31563;51.744;8.252;2024-01-06T11:16:52;2.40;;;1.13;;
45842;SDS011;31563;51.744;8.252;2024-01-06T11:22:23;1.95;;;1.30;;
45842;SDS011;31563;51.744;8.252;2024-01-06T11:24:54;2.03;;;1.00;;
45842;SDS011;31563;51.744;8.252;2024-01-06T11:27:24;1.77;;;0.90;;
45842;SDS011;31563;51.744;8.252;2024-01-06T11:29:56;1.70;;;0.93;;
45842;SDS011;31563;51.744;8.252;2024-01-06T11:32:27;2.05;;;0.90;;
45842;SDS011;31563;51.744;8.252;2024-01-06T11:35:04;1.55;;;0.73;;
45842;SDS011;31563;51.744;8.252;2024-01-06T11:37:36;2.17;;;0.70;;
45842;SDS011;31563;51.744;8.252;2024-01-06T11:40:22;1.63;;;0.88;;
45842;SDS011;31563;51.744;8.252;2024-01-06T11:45:29;0.95;;;0.55;;
45842;SDS011;31563;51.744;8.252;2024-01-06T11:47:59;0.80;;;0.50;;
45842;SDS011;31563;51.744;8.252;2024-01-06T11:50:29;2.65;;;2.45;;
45842;SDS011;31563;51.744;8.252;2024-01-06T11:52:58;2.97;;;2.00;;
45842;SDS011;31563;51.744;8.252;2024-01-06T11:55:27;1.92;;;1.40;;
45842;SDS011;31563;51.744;8.252;2024-01-06T11:57:55;1.50;;;1.23;;
45842;SDS011;31563;51.744;8.252;2024-01-06T12:00:24;1.80;;;1.33;;
45842;SDS011;31563;51.744;8.252;2024-01-06T12:02:56;2.45;;;1.40;;
45842;SDS011;31563;51.744;8.252;2024-01-06T12:05:24;1.60;;;1.30;;
45842;SDS011;31563;51.744;8.252;2024-01-06T12:07:53;1.67;;;1.30;;
45842;SDS011;31563;51.744;8.252;2024-01-06T12:10:22;1.60;;;1.20;;
45842;SDS011;31563;51.744;8.252;2024-01-06T12:12:59;2.95;;;1.02;;
45842;SDS011;31563;51.744;8.252;2024-01-06T12:15:29;1.48;;;0.95;;
45842;SDS011;31563;51.744;8.252;2024-01-06T12:18:02;1.73;;;1.42;;
45842;SDS011;31563;51.744;8.252;2024-01-06T12:20:31;2.35;;;1.20;;
45842;SDS011;31563;51.744;8.252;2024-01-06T12:22:59;1.40;;;1.13;;
45842;SDS011;31563;51.744;8.252;2024-01-06T12:25:29;2.78;;;1.67;;
45842;SDS011;31563;51.744;8.252;2024-01-06T12:28:05;1.98;;;0.95;;
45842;SDS011;31563;51.744;8.252;2024-01-06T12:30:33;1.10;;;0.80;;
45842;SDS011;31563;51.744;8.252;2024-01-06T12:33:03;2.75;;;1.13;;
45842;SDS011;31563;51.744;8.252;2024-01-06T12:35:32;1.10;;;0.88;;
45842;SDS011;31563;51.744;8.252;2024-01-06T12:38:01;2.00;;;1.40;;
45842;SDS011;31563;51.744;8.252;2024-01-06T12:40:32;1.60;;;1.02;;
45842;SDS011;31563;51.744;8.252;2024-01-06T12:43:03;1.77;;;1.38;;
45842;SDS011;31563;51.744;8.252;2024-01-06T12:45:31;1.25;;;1.00;;
45842;SDS011;31563;51.744;8.252;2024-01-06T12:47:59;2.90;;;1.02;;
45842;SDS011;31563;51.744;8.252;2024-01-06T12:50:29;2.15;;;1.40;;
45842;SDS011;31563;51.744;8.252;2024-01-06T12:52:56;2.47;;;0.97;;
45842;SDS011;31563;51.744;8.252;2024-01-06T12:55:24;1.73;;;0.95;;
45842;SDS011;31563;51.744;8.252;2024-01-06T12:57:52;1.45;;;1.00;;
45842;SDS011;31563;51.744;8.252;2024-01-06T13:00:20;1.35;;;1.10;;
45842;SDS011;31563;51.744;8.252;2024-01-06T13:02:48;1.30;;;0.80;;
45842;SDS011;31563;51.744;8.252;2024-01-06T13:05:16;1.88;;;0.85;;
45842;SDS011;31563;51.744;8.252;2024-01-06T13:07:47;2.25;;;2.05;;
45842;SDS011;31563;51.744;8.252;2024-01-06T13:10:15;2.60;;;2.33;;
45842;SDS011;31563;51.744;8.252;2024-01-06T13:12:43;3.67;;;1.85;;
45842;SDS011;31563;51.744;8.252;2024-01-06T13:15:11;1.92;;;1.38;;
45842;SDS011;31563;51.744;8.252;2024-01-06T13:17:39;2.00;;;1.40;;
45842;SDS011;31563;51.744;8.252;2024-01-06T13:20:08;2.00;;;1.42;;
45842;SDS011;31563;51.744;8.252;2024-01-06T13:22:36;2.65;;;1.48;;
45842;SDS011;31563;51.744;8.252;2024-01-06T13:25:08;2.05;;;1.40;;
45842;SDS011;31563;51.744;8.252;2024-01-06T13:27:38;2.05;;;1.55;;
45842;SDS011;31563;51.744;8.252;2024-01-06T13:30:06;1.15;;;0.90;;
45842;SDS011;31563;51.744;8.252;2024-01-06T13:32:35;1.40;;;1.10;;
45842;SDS011;31563;51.744;8.252;2024-01-06T13:35:04;1.13;;;0.90;;
45842;SDS011;31563;51.744;8.252;2024-01-06T13:37:33;1.10;;;0.70;;
45842;SDS011;31563;51.744;8.252;2024-01-06T13:40:01;1.98;;;1.15;;
45842;SDS011;31563;51.744;8.252;2024-01-06T13:42:31;1.00;;;0.77;;
45842;SDS011;31563;51.744;8.252;2024-01-06T13:44:59;0.85;;;0.70;;
45842;SDS011;31563;51.744;8.252;2024-01-06T13:47:30;1.42;;;0.73;;
45842;SDS011;31563;51.744;8.252;2024-01-06T13:49:58;1.35;;;0.77;;
45842;SDS011;31563;51.744;8.252;2024-01-06T13:52:26;1.27;;;0.98;;
45842;SDS011;31563;51.744;8.252;2024-01-06T13:54:54;1.10;;;0.57;;
45842;SDS011;31563;51.744;8.252;2024-01-06T13:57:22;1.25;;;0.82;;
45842;SDS011;31563;51.744;8.252;2024-01-06T13:59:51;0.93;;;0.77;;
45842;SDS011;31563;51.744;8.252;2024-01-06T14:02:21;1.13;;;0.73;;
45842;SDS011;31563;51.744;8.252;2024-01-06T14:04:49;2.47;;;0.60;;
45842;SDS011;31563;51.744;8.252;2024-01-06T14:07:17;1.15;;;0.82;;
45842;SDS011;31563;51.744;8.252;2024-01-06T14:09:46;1.10;;;0.70;;
45842;SDS011;31563;51.744;8.252;2024-01-06T14:12:14;1.05;;;0.50;;
45842;SDS011;31563;51.744;8.252;2024-01-06T14:14:42;1.38;;;0.50;;
45842;SDS011;31563;51.744;8.252;2024-01-06T14:17:11;0.88;;;0.60;;
45842;SDS011;31563;51.744;8.252;2024-01-06T14:19:39;0.95;;;0.57;;
45842;SDS011;31563;51.744;8.252;2024-01-06T14:22:13;1.35;;;0.77;;
45842;SDS011;31563;51.744;8.252;2024-01-06T14:24:41;0.85;;;0.60;;
45842;SDS011;31563;51.744;8.252;2024-01-06T14:27:09;1.00;;;0.50;;
45842;SDS011;31563;51.744;8.252;2024-01-06T14:29:37;1.13;;;0.50;;
45842;SDS011;31563;51.744;8.252;2024-01-06T14:32:06;0.88;;;0.50;;
45842;SDS011;31563;51.744;8.252;2024-01-06T14:34:36;1.05;;;0.63;;
45842;SDS011;31563;51.744;8.252;2024-01-06T14:37:04;0.67;;;0.50;;
45842;SDS011;31563;51.744;8.252;2024-01-06T14:39:32;2.10;;;1.40;;
45842;SDS011;31563;51.744;8.252;2024-01-06T14:42:01;2.70;;;1.20;;
45842;SDS011;31563;51.744;8.252;2024-01-06T14:44:29;2.83;;;0.90;;
45842;SDS011;31563;51.744;8.252;2024-01-06T14:46:57;1.40;;;0.75;;
45842;SDS011;31563;51.744;8.252;2024-01-06T14:49:25;1.85;;;1.10;;
45842;SDS011;31563;51.744;8.252;2024-01-06T14:51:55;1.33;;;0.90;;
45842;SDS011;31563;51.744;8.252;2024-01-06T14:54:23;1.13;;;0.75;;
45842;SDS011;31563;51.744;8.252;2024-01-06T14:56:51;1.48;;;0.88;;
45842;SDS011;31563;51.744;8.252;2024-01-06T14:59:20;1.20;;;0.60;;
45842;SDS011;31563;51.744;8.252;2024-01-06T15:01:48;1.23;;;0.80;;
45842;SDS011;31563;51.744;8.252;2024-01-06T15:04:17;0.80;;;0.40;;
45842;SDS011;31563;51.744;8.252;2024-01-06T15:06:46;1.52;;;0.50;;